Time;durP1;ratioP1;P1;durP2;ratioP2;P2;SDS_P1;SDS_P2;PMS_P1;PMS_P2;Temp;Humidity;BMP_temperature;BMP_pressure;BME280_temperature;BME280_humidity;BME280_pressure;Samples;Min_cycle;Max_cycle;Signal;HPM_P1;HPM_P2
2022/09/10 00:01:20;;;;;;;1.67;0.90;;;13.70;99.90;13.70;100231.00;;;;4924438;28;89015;-59
2022/09/10 00:03:50;;;;;;;2.60;0.83;;;13.70;99.90;13.70;100224.00;;;;4920185;28;88604;-58
2022/09/10 00:06:17;;;;;;;0.70;0.40;;;13.70;99.90;13.60;100241.00;;;;4937088;28;88143;-58
2022/09/10 00:08:44;;;;;;;1.43;1.00;;;13.60;99.90;13.60;100228.00;;;;4936167;28;96394;-56
2022/09/10 00:11:11;;;;;;;0.63;0.63;;;13.60;99.90;13.60;100233.00;;;;4935354;28;88643;-59
2022/09/10 00:13:38;;;;;;;0.57;0.57;;;13.60;99.90;13.60;100229.00;;;;4937505;28;107733;-59
2022/09/10 00:16:08;;;;;;;0.57;0.50;;;13.60;99.90;13.60;100232.00;;;;4934217;28;96894;-59
2022/09/10 00:18:34;;;;;;;1.27;0.97;;;13.60;99.90;13.50;100232.00;;;;4932334;28;101762;-59
2022/09/10 00:21:04;;;;;;;0.80;0.80;;;13.50;99.90;13.50;100233.00;;;;4935263;28;88062;-58
2022/09/10 00:23:30;;;;;;;0.50;0.50;;;13.50;99.90;13.50;100229.00;;;;4947157;28;106158;-59
2022/09/10 00:25:57;;;;;;;1.10;1.00;;;13.50;99.90;13.50;100226.00;;;;4933720;28;88046;-58
2022/09/10 00:28:26;;;;;;;1.63;0.90;;;13.50;99.90;13.50;100228.00;;;;4933228;28;87732;-57
2022/09/10 00:30:53;;;;;;;0.77;0.70;;;13.50;99.90;13.50;100224.00;;;;4925989;28;87919;-59
2022/09/10 00:33:21;;;;;;;1.00;1.00;;;13.40;99.90;13.50;100229.00;;;;4928728;28;110846;-59
2022/09/10 00:35:47;;;;;;;0.70;0.70;;;13.40;99.90;13.40;100228.00;;;;4938521;28;93171;-57
2022/09/10 00:38:17;;;;;;;1.70;0.73;;;13.40;99.90;13.40;100222.00;;;;4939718;28;87587;-59
2022/09/10 00:40:42;;;;;;;0.40;0.40;;;13.40;99.90;13.40;100226.00;;;;4937544;28;88508;-59
2022/09/10 00:43:53;;;;;;;0.80;0.80;;;13.40;99.90;13.30;100229.00;;;;4940602;28;116731;-59
2022/09/10 00:46:30;;;;;;;0.90;0.90;;;13.30;99.90;13.20;100237.00;;;;4927684;28;87773;-58
2022/09/10 00:49:01;;;;;;;0.50;0.50;;;13.30;99.90;13.20;100233.00;;;;4925181;28;92317;-59
2022/09/10 00:51:31;;;;;;;0.57;0.57;;;13.20;99.90;13.10;100230.00;;;;4928130;28;88776;-59
2022/09/10 00:53:58;;;;;;;1.33;0.80;;;13.20;99.90;13.10;100231.00;;;;4932170;28;87690;-58
2022/09/10 00:56:24;;;;;;;1.03;0.67;;;13.10;99.90;13.10;100229.00;;;;4930210;28;88189;-59
2022/09/10 00:58:51;;;;;;;0.57;0.57;;;13.10;99.90;13.00;100227.00;;;;4917125;28;102794;-58
2022/09/10 01:01:18;;;;;;;1.70;0.73;;;13.00;99.90;13.00;100228.00;;;;4934048;28;89040;-59
2022/09/10 01:03:45;;;;;;;1.13;0.93;;;13.00;99.90;12.90;100228.00;;;;4919039;28;88165;-59
2022/09/10 01:06:12;;;;;;;1.57;1.20;;;13.00;99.90;12.90;100231.00;;;;4917442;28;99952;-59
2022/09/10 01:08:37;;;;;;;2.47;0.50;;;12.90;99.90;12.90;100227.00;;;;4926071;28;87682;-59
2022/09/10 01:11:37;;;;;;;1.23;0.70;;;12.90;99.90;12.80;100228.00;;;;4924144;28;118288;-58
2022/09/10 01:14:22;;;;;;;0.57;0.57;;;12.90;99.90;12.80;100232.00;;;;4930895;28;88617;-59
2022/09/10 01:17:24;;;;;;;1.27;0.97;;;12.80;99.90;12.70;100222.00;;;;4932824;28;87930;-59
2022/09/10 01:20:45;;;;;;;1.07;1.00;;;12.80;99.90;12.70;100229.00;;;;4925030;28;88079;-59
2022/09/10 01:23:53;;;;;;;0.77;0.77;;;12.80;99.90;12.70;100237.00;;;;4933905;28;88838;-60
2022/09/10 01:27:18;;;;;;;0.77;0.77;;;12.80;99.90;12.70;100228.00;;;;4935547;28;88735;-59
2022/09/10 01:29:54;;;;;;;0.70;0.70;;;12.80;99.90;12.80;100227.00;;;;4916049;28;100069;-60
2022/09/10 01:32:46;;;;;;;0.90;0.70;;;12.80;99.90;12.80;100236.00;;;;4916448;28;87933;-59
2022/09/10 01:35:29;;;;;;;0.90;0.90;;;12.80;99.90;12.80;100224.00;;;;4931729;28;86977;-59
2022/09/10 01:37:59;;;;;;;1.43;0.73;;;12.80;99.90;12.90;100234.00;;;;4937101;28;88384;-59
2022/09/10 01:40:29;;;;;;;4.03;0.70;;;12.90;99.90;12.90;100236.00;;;;4916874;28;87919;-59
2022/09/10 01:43:01;;;;;;;1.20;1.10;;;12.90;99.90;13.00;100246.00;;;;4935852;28;88483;-58
2022/09/10 01:45:28;;;;;;;0.80;0.80;;;12.90;99.90;13.00;100245.00;;;;4929169;28;104472;-58
2022/09/10 01:48:28;;;;;;;2.50;1.17;;;13.00;99.90;13.00;100239.00;;;;4927603;28;88779;-59
2022/09/10 01:51:40;;;;;;;0.83;0.70;;;13.00;99.90;13.00;100244.00;;;;4929982;28;87745;-60
2022/09/10 01:54:35;;;;;;;0.93;0.80;;;13.00;99.90;13.00;100250.00;;;;4929844;28;88298;-59
2022/09/10 01:57:23;;;;;;;2.70;0.97;;;13.10;99.90;13.10;100248.00;;;;4923409;28;89014;-59
2022/09/10 02:00:06;;;;;;;0.90;0.90;;;13.10;99.90;13.10;100241.00;;;;4935643;28;87866;-59
2022/09/10 02:03:15;;;;;;;0.77;0.73;;;13.10;99.90;13.10;100245.00;;;;4936404;28;87211;-59
2022/09/10 02:05:44;;;;;;;0.70;0.50;;;13.10;99.90;13.20;100241.00;;;;4908929;28;88396;-58
2022/09/10 02:08:38;;;;;;;1.17;1.07;;;13.10;99.90;13.20;100241.00;;;;4919369;28;106541;-60
2022/09/10 02:11:08;;;;;;;0.87;0.70;;;13.20;99.90;13.30;100240.00;;;;4914347;28;88872;-56
2022/09/10 02:13:35;;;;;;;0.63;0.63;;;13.20;99.90;13.30;100237.00;;;;4915358;28;98615;-59
2022/09/10 02:16:05;;;;;;;0.50;0.50;;;13.30;99.90;13.30;100236.00;;;;4913369;28;98902;-59
2022/09/10 02:18:32;;;;;;;1.50;0.93;;;13.20;99.90;13.30;100235.00;;;;4934831;28;112967;-58
2022/09/10 02:21:01;;;;;;;1.00;0.90;;;13.30;99.90;13.30;100234.00;;;;4929648;28;115045;-60
2022/09/10 02:23:38;;;;;;;0.70;0.60;;;13.30;99.90;13.30;100229.00;;;;4934645;28;87875;-59
2022/09/10 02:26:03;;;;;;;1.37;0.70;;;13.30;99.90;13.20;100243.00;;;;4920259;28;88214;-57
2022/09/10 02:28:29;;;;;;;1.57;0.63;;;13.40;99.90;13.20;100242.00;;;;4930257;28;87320;-59
2022/09/10 02:30:55;;;;;;;1.50;1.33;;;13.20;99.90;13.20;100232.00;;;;4938641;28;115766;-59
2022/09/10 02:33:20;;;;;;;5.60;1.37;;;13.20;99.90;13.10;100241.00;;;;4933667;28;109424;-59
2022/09/10 02:35:47;;;;;;;0.90;0.90;;;13.20;99.90;13.10;100249.00;;;;4936620;28;109543;-58
2022/09/10 02:38:13;;;;;;;1.20;1.10;;;13.10;99.90;13.10;100250.00;;;;4940006;28;88094;-59
2022/09/10 02:40:38;;;;;;;0.93;0.93;;;13.20;99.90;13.10;100244.00;;;;4958003;28;113536;-60
2022/09/10 02:43:04;;;;;;;0.70;0.70;;;13.00;99.90;13.10;100238.00;;;;4941113;28;108725;-60
2022/09/10 02:45:30;;;;;;;0.83;0.83;;;13.00;99.90;13.00;100230.00;;;;4927745;28;91571;-59
2022/09/10 02:47:56;;;;;;;0.53;0.43;;;13.00;99.90;13.00;100246.00;;;;4942054;28;100108;-60
2022/09/10 02:50:23;;;;;;;1.60;1.03;;;13.00;99.90;13.00;100240.00;;;;4938633;28;88276;-59
2022/09/10 02:52:50;;;;;;;1.27;1.17;;;13.00;99.90;13.00;100239.00;;;;4942345;28;87238;-58
2022/09/10 02:55:16;;;;;;;1.27;0.67;;;13.00;99.90;13.00;100231.00;;;;4933327;28;87709;-59
2022/09/10 02:57:42;;;;;;;1.80;0.87;;;12.90;99.90;12.90;100240.00;;;;4936194;28;111485;-59
2022/09/10 03:00:10;;;;;;;7.53;0.60;;;12.90;99.90;12.90;100240.00;;;;4937143;28;88964;-58
2022/09/10 03:02:35;;;;;;;1.07;0.90;;;12.80;99.90;12.80;100236.00;;;;4941603;28;87816;-60
2022/09/10 03:05:03;;;;;;;2.13;0.63;;;12.80;99.90;12.80;100234.00;;;;4927764;28;87850;-59
2022/09/10 03:07:31;;;;;;;1.07;0.60;;;12.70;99.90;12.70;100234.00;;;;4937202;28;87795;-59
2022/09/10 03:09:57;;;;;;;0.73;0.70;;;12.70;99.90;12.70;100232.00;;;;4931988;28;93688;-59
2022/09/10 03:12:22;;;;;;;0.70;0.63;;;12.70;99.90;12.60;100232.00;;;;4934163;28;109229;-60
2022/09/10 03:14:49;;;;;;;0.50;0.50;;;12.60;99.90;12.60;100225.00;;;;4937268;28;108384;-59
2022/09/10 03:17:15;;;;;;;1.20;0.73;;;12.60;99.90;12.50;100222.00;;;;4946133;28;87568;-59
2022/09/10 03:19:40;;;;;;;6.60;1.47;;;12.50;99.90;12.50;100206.00;;;;4947708;28;87677;-59
2022/09/10 03:22:06;;;;;;;0.63;0.63;;;12.50;99.90;12.40;100220.00;;;;4939835;28;96127;-59
2022/09/10 03:24:32;;;;;;;1.40;1.10;;;12.40;99.90;12.30;100220.00;;;;4930251;28;88871;-59
2022/09/10 03:26:58;;;;;;;0.60;0.60;;;12.40;99.90;12.30;100219.00;;;;4927163;28;117378;-58
2022/09/10 03:29:23;;;;;;;0.63;0.63;;;12.30;99.90;12.20;100219.00;;;;4932405;28;116402;-59
2022/09/10 03:31:50;;;;;;;1.37;0.73;;;12.30;99.90;12.20;100210.00;;;;4941415;28;87506;-60
2022/09/10 03:34:17;;;;;;;1.00;0.83;;;12.20;99.90;12.10;100212.00;;;;4936425;28;87438;-59
2022/09/10 03:36:46;;;;;;;0.70;0.60;;;12.10;99.90;12.00;100204.00;;;;4943447;28;88821;-59
2022/09/10 03:39:13;;;;;;;0.53;0.40;;;12.10;99.90;12.00;100215.00;;;;4936554;28;87946;-60
2022/09/10 03:41:39;;;;;;;3.63;1.17;;;12.00;99.90;12.00;100226.00;;;;4935585;28;87159;-59
2022/09/10 03:44:05;;;;;;;1.60;1.07;;;12.00;99.90;11.90;100224.00;;;;4938201;28;107961;-60
2022/09/10 03:46:31;;;;;;;0.87;0.70;;;12.00;99.90;11.90;100221.00;;;;4931647;28;87875;-59
2022/09/10 03:49:01;;;;;;;0.83;0.73;;;11.90;99.90;11.90;100220.00;;;;4931928;28;88759;-56
2022/09/10 03:51:28;;;;;;;0.50;0.50;;;11.90;99.90;11.80;100218.00;;;;4932950;28;87737;-59
2022/09/10 03:53:53;;;;;;;5.70;1.30;;;11.80;99.90;11.80;100227.00;;;;4934653;28;87836;-60
2022/09/10 03:56:19;;;;;;;4.23;0.93;;;11.80;99.90;11.70;100223.00;;;;4934410;28;117569;-59
2022/09/10 03:58:47;;;;;;;1.03;0.80;;;11.80;99.90;11.70;100227.00;;;;4931729;28;87542;-59
2022/09/10 04:01:15;;;;;;;1.73;0.60;;;11.70;99.90;11.60;100226.00;;;;4928606;28;87829;-59
2022/09/10 04:03:41;;;;;;;0.90;0.80;;;11.70;99.90;11.60;100228.00;;;;4934928;28;87688;-59
2022/09/10 04:06:11;;;;;;;0.77;0.77;;;11.60;99.90;11.60;100221.00;;;;4931227;28;87798;-60
2022/09/10 04:08:38;;;;;;;3.43;0.90;;;11.60;99.90;11.50;100221.00;;;;4933195;28;92333;-60
2022/09/10 04:11:05;;;;;;;0.80;0.80;;;11.60;99.90;11.50;100220.00;;;;4937211;28;88032;-61
2022/09/10 04:13:31;;;;;;;1.33;0.90;;;11.60;99.90;11.50;100215.00;;;;4934201;28;88924;-60
2022/09/10 04:15:59;;;;;;;1.10;1.00;;;11.50;99.90;11.50;100230.00;;;;4950417;28;87672;-60
2022/09/10 04:18:26;;;;;;;2.00;1.27;;;11.50;99.90;11.40;100221.00;;;;4936583;28;89032;-60
2022/09/10 04:20:53;;;;;;;1.23;0.93;;;11.50;99.90;11.40;100232.00;;;;4938429;28;87918;-60
2022/09/10 04:23:19;;;;;;;1.07;0.97;;;11.50;99.90;11.40;100231.00;;;;4930486;28;88114;-58
2022/09/10 04:25:45;;;;;;;1.00;0.80;;;11.40;99.90;11.30;100231.00;;;;4934237;28;99586;-59
2022/09/10 04:28:12;;;;;;;0.57;0.53;;;11.40;99.90;11.30;100239.00;;;;4931798;28;117837;-59
2022/09/10 04:30:39;;;;;;;1.30;0.97;;;11.40;99.90;11.30;100246.00;;;;4942725;28;104218;-60
2022/09/10 04:33:05;;;;;;;0.77;0.77;;;11.30;99.90;11.30;100241.00;;;;4941169;28;87740;-60
2022/09/10 04:35:31;;;;;;;1.00;0.87;;;11.30;99.90;11.20;100234.00;;;;4936936;28;111533;-59
2022/09/10 04:37:57;;;;;;;1.93;0.77;;;11.30;99.90;11.20;100236.00;;;;4938967;28;92658;-59
2022/09/10 04:40:22;;;;;;;1.17;0.80;;;11.20;99.90;11.20;100248.00;;;;4934437;28;111570;-58
2022/09/10 04:42:48;;;;;;;1.23;0.80;;;11.20;99.90;11.10;100248.00;;;;4933813;28;87899;-60
2022/09/10 04:45:14;;;;;;;1.03;1.03;;;11.20;99.90;11.10;100259.00;;;;4934585;28;88603;-58
2022/09/10 04:47:40;;;;;;;1.20;1.00;;;11.20;99.90;11.10;100248.00;;;;4932992;28;116572;-60
2022/09/10 04:50:06;;;;;;;0.90;0.90;;;11.20;99.90;11.10;100238.00;;;;4937883;28;109832;-58
2022/09/10 04:52:32;;;;;;;2.10;0.60;;;11.10;99.90;11.10;100235.00;;;;4935969;28;95979;-57
2022/09/10 04:54:58;;;;;;;0.70;0.70;;;11.20;99.90;11.10;100241.00;;;;4939931;28;88329;-59
2022/09/10 04:57:24;;;;;;;1.03;1.00;;;11.10;99.90;11.10;100235.00;;;;4934774;28;88888;-58
2022/09/10 04:59:52;;;;;;;0.73;0.73;;;11.10;99.90;11.10;100238.00;;;;4934733;28;87623;-59
2022/09/10 05:02:19;;;;;;;0.73;0.73;;;11.10;99.90;11.10;100243.00;;;;4930217;28;88880;-60
2022/09/10 05:04:45;;;;;;;0.93;0.93;;;11.10;99.90;11.10;100243.00;;;;4928579;28;88178;-59
2022/09/10 05:07:10;;;;;;;1.97;1.10;;;11.10;99.90;11.10;100244.00;;;;4933109;28;116799;-60
2022/09/10 05:09:36;;;;;;;0.80;0.80;;;11.10;99.90;11.10;100246.00;;;;4930523;28;109832;-58
2022/09/10 05:12:03;;;;;;;2.50;0.50;;;11.10;99.90;11.20;100249.00;;;;4933917;28;88421;-57
2022/09/10 05:14:29;;;;;;;1.10;1.00;;;11.20;99.90;11.30;100238.00;;;;4933085;28;88723;-59
2022/09/10 05:16:55;;;;;;;2.30;0.90;;;11.20;99.90;11.40;100238.00;;;;4926152;28;87990;-58
2022/09/10 05:19:21;;;;;;;1.13;0.87;;;11.30;99.90;11.50;100238.00;;;;4930892;28;94218;-60
2022/09/10 05:21:47;;;;;;;0.80;0.80;;;11.50;99.90;11.60;100249.00;;;;4927092;28;107039;-59
2022/09/10 05:24:13;;;;;;;1.67;0.70;;;11.60;99.90;11.80;100245.00;;;;4908766;28;96196;-59
2022/09/10 05:26:40;;;;;;;1.10;1.10;;;11.70;99.90;11.90;100246.00;;;;4927124;28;108948;-59
2022/09/10 05:29:06;;;;;;;0.60;0.60;;;11.90;99.90;12.10;100244.00;;;;4931492;28;87719;-60
2022/09/10 05:31:34;;;;;;;0.70;0.70;;;12.00;99.90;12.20;100246.00;;;;4933220;28;87774;-60
2022/09/10 05:34:00;;;;;;;0.70;0.70;;;12.10;99.90;12.30;100251.00;;;;4928216;28;89016;-58
2022/09/10 05:36:27;;;;;;;0.93;0.73;;;12.30;99.90;12.50;100242.00;;;;4932622;28;94529;-58
2022/09/10 05:38:53;;;;;;;0.83;0.83;;;12.40;99.90;12.70;100239.00;;;;4928246;28;92677;-59
2022/09/10 05:41:20;;;;;;;0.50;0.50;;;12.60;99.90;12.90;100236.00;;;;4926815;28;87821;-59
2022/09/10 05:43:47;;;;;;;1.90;1.37;;;12.80;99.90;13.10;100244.00;;;;4930105;28;87996;-60
2022/09/10 05:46:13;;;;;;;0.60;0.60;;;13.00;99.90;13.30;100249.00;;;;4926340;28;108572;-57
2022/09/10 05:48:39;;;;;;;1.33;1.23;;;13.20;99.90;13.50;100237.00;;;;4930109;28;110498;-59
2022/09/10 05:51:06;;;;;;;1.40;0.93;;;13.40;99.90;13.70;100247.00;;;;4932813;28;88710;-57
2022/09/10 05:53:32;;;;;;;0.70;0.70;;;13.60;99.90;13.90;100239.00;;;;4932148;28;88512;-60
2022/09/10 05:55:58;;;;;;;1.27;0.73;;;13.80;99.90;14.10;100237.00;;;;4927952;28;108227;-57
2022/09/10 05:58:26;;;;;;;2.67;0.80;;;14.00;99.90;14.40;100242.00;;;;4930800;28;87979;-59
2022/09/10 06:00:56;;;;;;;5.50;1.10;;;14.20;99.90;14.60;100255.00;;;;4931248;28;87714;-59
2022/09/10 06:03:23;;;;;;;1.13;0.90;;;14.40;99.90;14.80;100265.00;;;;4931808;28;88995;-59
2022/09/10 06:05:50;;;;;;;2.83;1.02;;;14.70;99.90;15.00;100262.00;;;;4929751;28;88478;-59
2022/09/10 06:08:17;;;;;;;2.05;0.70;;;14.90;99.90;15.20;100268.00;;;;4936860;28;86984;-56
2022/09/10 06:11:04;;;;;;;0.70;0.67;;;15.30;99.90;15.50;100268.00;;;;4936237;28;87892;-59
2022/09/10 06:13:31;;;;;;;4.70;0.77;;;15.30;99.90;15.70;100264.00;;;;4939777;28;88095;-60
2022/09/10 06:15:58;;;;;;;0.55;0.55;;;15.50;99.90;15.90;100265.00;;;;4938021;28;88662;-59
2022/09/10 06:18:23;;;;;;;0.73;0.57;;;15.70;99.90;16.10;100264.00;;;;4934681;28;87605;-59
2022/09/10 06:21:00;;;;;;;0.38;0.38;;;15.90;99.90;16.30;100268.00;;;;4935113;28;107747;-59
2022/09/10 06:23:26;;;;;;;1.05;0.63;;;16.10;99.90;16.60;100263.00;;;;4933384;28;88715;-57
2022/09/10 06:26:01;;;;;;;0.68;0.50;;;16.40;99.90;16.80;100255.00;;;;4934047;28;116409;-60
2022/09/10 06:28:27;;;;;;;1.75;0.57;;;16.60;99.90;17.00;100258.00;;;;4941132;28;87763;-56
2022/09/10 06:30:53;;;;;;;0.70;0.50;;;16.80;99.90;17.10;100260.00;;;;4936892;28;107393;-61
2022/09/10 06:33:18;;;;;;;0.35;0.35;;;17.00;99.90;17.30;100265.00;;;;4935093;28;118180;-60
2022/09/10 06:35:55;;;;;;;1.23;0.70;;;17.10;99.90;17.40;100264.00;;;;4932673;28;116159;-61
2022/09/10 06:38:21;;;;;;;0.47;0.40;;;17.30;99.90;17.60;100261.00;;;;4929485;28;87856;-60
2022/09/10 06:40:56;;;;;;;0.90;0.40;;;17.50;99.90;17.80;100261.00;;;;4925888;28;96775;-58
2022/09/10 06:43:23;;;;;;;0.88;0.50;;;17.70;99.90;18.00;100269.00;;;;4927150;28;88728;-60
2022/09/10 06:45:55;;;;;;;2.17;0.30;;;17.80;99.90;18.20;100269.00;;;;4926111;28;87884;-60
2022/09/10 06:48:26;;;;;;;0.30;0.30;;;18.00;99.90;18.40;100265.00;;;;4931266;28;88564;-60
2022/09/10 06:50:54;;;;;;;0.45;0.45;;;18.20;99.90;18.50;100264.00;;;;4916703;28;87918;-60
2022/09/10 06:53:21;;;;;;;0.20;0.20;;;18.40;99.90;18.60;100271.00;;;;4912620;28;88643;-58
2022/09/10 06:55:49;;;;;;;0.30;0.30;;;18.40;99.90;18.60;100261.00;;;;4906464;28;87862;-59
2022/09/10 06:58:17;;;;;;;1.13;0.22;;;18.50;99.90;18.80;100255.00;;;;4926803;28;87162;-60
2022/09/10 07:00:44;;;;;;;2.15;0.22;;;18.60;99.90;18.90;100264.00;;;;4927565;28;87823;-60
2022/09/10 07:03:09;;;;;;;0.28;0.28;;;18.80;99.90;19.10;100259.00;;;;4928331;28;88137;-61
2022/09/10 07:05:35;;;;;;;0.40;0.38;;;18.90;99.90;19.20;100265.00;;;;4927279;28;118082;-57
2022/09/10 07:08:01;;;;;;;0.22;0.22;;;19.10;99.90;19.40;100262.00;;;;4925360;28;112528;-61
2022/09/10 07:10:30;;;;;;;0.40;0.30;;;19.30;99.90;19.60;100262.00;;;;4932416;28;99911;-58
2022/09/10 07:12:55;;;;;;;0.20;0.20;;;19.40;99.90;19.80;100267.00;;;;4927697;28;88588;-60
2022/09/10 07:15:21;;;;;;;0.75;0.50;;;19.60;99.90;19.90;100259.00;;;;4929751;28;116208;-55
2022/09/10 07:17:47;;;;;;;0.25;0.20;;;19.80;99.90;20.00;100267.00;;;;4929684;28;110534;-58
2022/09/10 07:20:13;;;;;;;0.25;0.25;;;19.90;99.90;20.10;100273.00;;;;4929046;28;87705;-60
2022/09/10 07:22:41;;;;;;;0.30;0.20;;;20.00;99.90;20.10;100272.00;;;;4928884;28;88336;-58
2022/09/10 07:25:07;;;;;;;1.45;0.30;;;20.00;99.90;20.20;100271.00;;;;4930459;28;88231;-59
2022/09/10 07:27:33;;;;;;;0.30;0.30;;;20.10;99.90;20.30;100266.00;;;;4929391;28;104719;-58
2022/09/10 07:29:58;;;;;;;0.20;0.20;;;20.20;99.90;20.40;100267.00;;;;4922652;28;106573;-60
2022/09/10 07:32:24;;;;;;;0.30;0.30;;;20.30;99.90;20.50;100278.00;;;;4927607;28;117043;-59
2022/09/10 07:34:51;;;;;;;0.40;0.40;;;20.40;99.90;20.60;100284.00;;;;4926579;28;117221;-60
2022/09/10 07:37:16;;;;;;;0.75;0.75;;;20.50;99.90;20.70;100279.00;;;;4927693;28;87868;-59
2022/09/10 07:39:42;;;;;;;0.40;0.40;;;20.60;99.90;20.90;100280.00;;;;4927360;28;87819;-60
2022/09/10 07:42:10;;;;;;;3.65;0.50;;;20.80;99.90;21.10;100273.00;;;;4925551;28;117845;-58
2022/09/10 07:44:36;;;;;;;0.90;0.40;;;20.90;99.60;21.30;100284.00;;;;4929830;28;88252;-59
2022/09/10 07:47:02;;;;;;;1.00;0.47;;;21.20;99.80;21.50;100286.00;;;;4930523;28;104559;-61
2022/09/10 07:49:28;;;;;;;3.42;0.60;;;21.30;99.40;21.60;100285.00;;;;4932675;28;87772;-60
2022/09/10 07:51:53;;;;;;;0.22;0.22;;;21.50;98.70;21.70;100285.00;;;;4927763;28;89393;-61
2022/09/10 07:54:19;;;;;;;0.52;0.52;;;21.60;97.60;21.80;100285.00;;;;4925725;28;116138;-60
2022/09/10 07:56:45;;;;;;;4.25;0.88;;;21.70;96.80;21.90;100295.00;;;;4924742;28;88093;-60
2022/09/10 07:59:12;;;;;;;1.15;0.57;;;21.80;96.80;22.00;100288.00;;;;4926403;28;108987;-58
2022/09/10 08:01:37;;;;;;;0.20;0.20;;;21.90;96.10;22.10;100290.00;;;;4927707;28;89116;-60
2022/09/10 08:04:05;;;;;;;0.82;0.47;;;22.00;95.60;22.10;100296.00;;;;4928728;28;88779;-60
2022/09/10 08:06:31;;;;;;;0.60;0.35;;;22.10;95.10;22.20;100301.00;;;;4930145;28;87917;-59
2022/09/10 08:08:56;;;;;;;0.30;0.30;;;22.10;94.20;22.20;100297.00;;;;4932695;28;87742;-60
2022/09/10 08:11:22;;;;;;;0.98;0.52;;;22.00;94.50;22.40;100301.00;;;;4929037;28;115331;-59
2022/09/10 08:13:51;;;;;;;0.52;0.52;;;22.30;94.60;22.50;100297.00;;;;4929877;28;87891;-60
2022/09/10 08:16:22;;;;;;;0.80;0.40;;;22.40;94.30;22.80;100307.00;;;;4924307;28;87935;-60
2022/09/10 08:18:50;;;;;;;0.30;0.28;;;22.60;93.90;23.00;100298.00;;;;4911811;28;90012;-61
2022/09/10 08:21:17;;;;;;;0.20;0.10;;;22.80;93.40;23.20;100302.00;;;;4929811;28;88174;-61
2022/09/10 08:23:52;;;;;;;0.65;0.38;;;23.00;93.30;23.50;100302.00;;;;4933335;28;88000;-61
2022/09/10 08:26:22;;;;;;;0.77;0.50;;;23.30;92.90;23.70;100299.00;;;;4933405;28;87819;-61
2022/09/10 08:28:55;;;;;;;0.57;0.50;;;23.60;92.10;24.00;100310.00;;;;4931433;28;87942;-61
2022/09/10 08:31:21;;;;;;;1.27;0.30;;;23.80;91.70;24.10;100310.00;;;;4926881;28;111898;-61
2022/09/10 08:33:49;;;;;;;1.02;0.50;;;24.00;91.20;24.20;100306.00;;;;4929028;28;108628;-61
2022/09/10 08:36:17;;;;;;;0.95;0.55;;;24.00;90.80;24.20;100303.00;;;;4931821;28;87126;-61
2022/09/10 08:38:43;;;;;;;0.32;0.32;;;24.00;90.60;24.00;100302.00;;;;4929875;28;87757;-61
2022/09/10 08:41:18;;;;;;;0.25;0.20;;;23.90;90.20;23.80;100309.00;;;;4929977;28;88232;-60
2022/09/10 08:44:06;;;;;;;0.15;0.15;;;23.80;89.60;23.50;100310.00;;;;4931512;28;88719;-60
2022/09/10 08:46:52;;;;;;;1.25;0.90;;;23.60;90.10;23.40;100311.00;;;;4913794;28;88289;-61
2022/09/10 08:49:36;;;;;;;0.63;0.52;;;23.40;90.00;23.40;100310.00;;;;4913116;28;87841;-61
2022/09/10 08:52:42;;;;;;;1.02;0.40;;;23.30;90.20;23.30;100306.00;;;;4924935;28;88122;-61
2022/09/10 08:55:23;;;;;;;0.30;0.20;;;23.20;90.20;23.20;100310.00;;;;4891618;28;88034;-61
2022/09/10 08:58:05;;;;;;;2.22;0.20;;;23.20;90.20;23.20;100310.00;;;;4916704;28;87665;-58
2022/09/10 09:00:37;;;;;;;0.73;0.38;;;23.10;90.00;23.10;100310.00;;;;4929048;28;87527;-60
2022/09/10 09:03:27;;;;;;;0.45;0.20;;;23.00;90.00;23.10;100319.00;;;;4914530;28;89437;-61
2022/09/10 09:05:57;;;;;;;0.45;0.28;;;22.90;90.10;23.10;100298.00;;;;4914630;28;111340;-60
2022/09/10 09:08:28;;;;;;;0.60;0.30;;;22.90;89.80;23.10;100306.00;;;;4932702;28;87766;-61
2022/09/10 09:11:16;;;;;;;0.32;0.32;;;22.90;89.70;23.00;100313.00;;;;4914877;28;96991;-61
2022/09/10 09:14:17;;;;;;;0.52;0.38;;;22.90;89.90;23.10;100310.00;;;;4923448;28;104129;-61
2022/09/10 09:17:41;;;;;;;0.82;0.30;;;22.90;90.00;23.00;100305.00;;;;4913087;28;111696;-60
2022/09/10 09:20:17;;;;;;;0.50;0.40;;;22.80;89.70;23.00;100316.00;;;;4933950;28;91389;-60
2022/09/10 09:22:43;;;;;;;0.55;0.30;;;22.80;89.70;23.10;100303.00;;;;4933135;28;87850;-61
2022/09/10 09:25:32;;;;;;;0.20;0.20;;;22.90;89.80;23.30;100312.00;;;;4929366;28;117989;-61
2022/09/10 09:27:58;;;;;;;0.30;0.30;;;23.00;89.60;23.50;100308.00;;;;4934648;28;87956;-61
2022/09/10 09:30:32;;;;;;;0.30;0.30;;;23.20;89.00;23.60;100306.00;;;;4951105;28;87295;-61
2022/09/10 09:33:11;;;;;;;2.90;0.55;;;23.30;88.10;23.60;100309.00;;;;4914173;28;90856;-61
2022/09/10 09:35:55;;;;;;;0.13;0.10;;;23.30;88.10;23.50;100316.00;;;;4919510;28;110387;-61
2022/09/10 09:38:29;;;;;;;0.30;0.30;;;23.30;87.60;23.40;100312.00;;;;4914531;28;88935;-59
2022/09/10 09:41:06;;;;;;;2.10;0.68;;;23.20;87.70;23.20;100311.00;;;;4906367;28;103951;-62
2022/09/10 09:43:51;;;;;;;0.20;0.20;;;23.10;87.20;22.90;100314.00;;;;4933278;28;87948;-61
2022/09/10 09:46:19;;;;;;;0.30;0.30;;;22.90;87.50;22.80;100314.00;;;;4917259;28;88519;-61
2022/09/10 09:48:46;;;;;;;0.10;0.10;;;22.70;88.30;22.70;100313.00;;;;4926324;28;111911;-61
2022/09/10 09:51:19;;;;;;;0.30;0.30;;;22.60;88.90;22.70;100319.00;;;;4911347;28;88362;-61
2022/09/10 09:53:48;;;;;;;4.18;0.70;;;22.50;89.40;22.60;100314.00;;;;4914708;28;87953;-61
2022/09/10 09:56:50;;;;;;;0.68;0.25;;;22.40;88.70;22.60;100306.00;;;;4913122;28;87488;-61
2022/09/10 09:59:36;;;;;;;0.82;0.60;;;22.40;88.50;22.90;100306.00;;;;4892480;28;87977;-59
2022/09/10 10:02:18;;;;;;;3.95;0.73;;;22.50;88.00;23.20;100301.00;;;;4933646;28;87644;-61
2022/09/10 10:05:06;;;;;;;0.80;0.30;;;22.80;87.60;23.50;100311.00;;;;4931198;28;88957;-62
2022/09/10 10:07:35;;;;;;;0.40;0.40;;;23.20;87.00;23.70;100295.00;;;;4933424;28;87859;-61
2022/09/10 10:10:04;;;;;;;0.43;0.43;;;23.30;85.20;23.90;100309.00;;;;4907513;28;89047;-61
2022/09/10 10:12:31;;;;;;;0.28;0.28;;;23.50;81.70;23.90;100303.00;;;;4914860;28;97732;-60
2022/09/10 10:14:59;;;;;;;0.30;0.30;;;23.50;81.10;23.70;100305.00;;;;4910676;28;87997;-59
2022/09/10 10:17:28;;;;;;;0.47;0.40;;;23.50;80.90;23.70;100303.00;;;;4928944;28;88518;-60
2022/09/10 10:20:07;;;;;;;0.73;0.40;;;23.40;80.50;23.80;100307.00;;;;4931706;28;88653;-61
2022/09/10 10:22:34;;;;;;;0.55;0.40;;;23.40;80.20;23.90;100297.00;;;;4926133;28;89483;-59
2022/09/10 10:25:02;;;;;;;0.32;0.32;;;23.50;79.20;23.90;100297.00;;;;4925100;28;93359;-60
2022/09/10 10:27:41;;;;;;;0.25;0.25;;;23.50;79.20;24.10;100298.00;;;;4928092;28;104716;-61
2022/09/10 10:30:16;;;;;;;0.43;0.30;;;23.70;79.80;24.30;100298.00;;;;4910818;28;105358;-61
2022/09/10 10:32:50;;;;;;;0.30;0.30;;;23.90;79.60;24.30;100297.00;;;;4926390;28;87766;-61
2022/09/10 10:35:53;;;;;;;0.20;0.10;;;24.00;79.50;24.30;100302.00;;;;4924916;28;88165;-58
2022/09/10 10:38:28;;;;;;;0.38;0.30;;;24.00;78.80;24.20;100299.00;;;;4906781;28;88861;-60
2022/09/10 10:41:04;;;;;;;0.80;0.25;;;23.90;78.60;24.20;100298.00;;;;4928254;28;87938;-61
2022/09/10 10:44:13;;;;;;;0.30;0.30;;;23.90;79.40;24.10;100304.00;;;;4928679;28;87702;-60
2022/09/10 10:47:34;;;;;;;0.47;0.20;;;23.80;79.40;24.20;100295.00;;;;4927408;28;87939;-61
2022/09/10 10:50:07;;;;;;;0.50;0.28;;;23.80;80.20;24.60;100292.00;;;;4928769;28;87472;-60
2022/09/10 10:53:14;;;;;;;1.75;0.35;;;24.20;79.80;25.20;100294.00;;;;4928381;28;88093;-61
2022/09/10 10:55:51;;;;;;;0.60;0.22;;;24.70;79.40;25.70;100289.00;;;;4913903;28;88045;-60
2022/09/10 10:58:38;;;;;;;0.20;0.20;;;25.20;77.80;25.90;100292.00;;;;4928421;28;88856;-60
2022/09/10 11:01:20;;;;;;;1.17;0.50;;;25.50;77.10;26.00;100291.00;;;;4932336;28;88097;-60
2022/09/10 11:04:28;;;;;;;0.10;0.10;;;25.60;74.20;25.70;100293.00;;;;4917208;28;110507;-60
2022/09/10 11:07:05;;;;;;;0.10;0.10;;;25.40;73.00;25.50;100291.00;;;;4879544;28;88099;-61